Time;durP1;ratioP1;P1;durP2;ratioP2;P2;SDS_P1;SDS_P2;PMS_P1;PMS_P2;Temp;Humidity;BMP_temperature;BMP_pressure;BME280_temperature;BME280_humidity;BME280_pressure;Samples;Min_cycle;Max_cycle;Signal;HPM_P1;HPM_P2
2024/01/22 00:00:41;;;;;;;61.35;57.67;;;;;;;;;;5066904;28;20443;-64
2024/01/22 00:03:10;;;;;;;65.40;60.90;;;;;;;;;;5067174;28;20455;-63
2024/01/22 00:05:37;;;;;;;107.65;100.93;;;;;;;;;;5068028;28;20957;-63
2024/01/22 00:08:05;;;;;;;100.30;94.82;;;;;;;;;;5068032;28;20455;-63
2024/01/22 00:10:32;;;;;;;71.85;67.75;;;;;;;;;;5064701;28;20455;-63
2024/01/22 00:13:00;;;;;;;63.47;59.47;;;;;;;;;;5059262;28;20481;-63
2024/01/22 00:15:28;;;;;;;83.45;78.00;;;;;;;;;;5063036;28;20431;-63
2024/01/22 00:17:55;;;;;;;131.48;124.35;;;;;;;;;;5062412;28;20435;-63
2024/01/22 00:20:22;;;;;;;118.22;111.78;;;;;;;;;;5059122;28;21050;-63
2024/01/22 00:22:50;;;;;;;106.60;100.60;;;;;;;;;;5072364;28;20478;-64
2024/01/22 00:25:17;;;;;;;72.80;68.55;;;;;;;;;;5055377;28;20423;-64
2024/01/22 00:27:44;;;;;;;88.32;83.22;;;;;;;;;;5064163;28;20424;-64
2024/01/22 00:30:12;;;;;;;94.00;88.90;;;;;;;;;;5064457;28;20475;-64
2024/01/22 00:32:39;;;;;;;121.32;114.22;;;;;;;;;;5066685;28;20542;-64
2024/01/22 00:35:07;;;;;;;136.30;128.85;;;;;;;;;;5067814;28;20459;-64
2024/01/22 00:37:34;;;;;;;66.93;63.22;;;;;;;;;;5065966;28;20518;-64
2024/01/22 00:40:01;;;;;;;48.05;45.35;;;;;;;;;;5064494;28;20431;-64
2024/01/22 00:42:28;;;;;;;61.92;57.90;;;;;;;;;;5061684;28;20519;-64
2024/01/22 00:44:56;;;;;;;74.33;70.27;;;;;;;;;;5066500;28;20513;-64
2024/01/22 00:47:23;;;;;;;88.30;83.45;;;;;;;;;;5063519;28;20438;-64
2024/01/22 00:49:50;;;;;;;110.97;105.22;;;;;;;;;;5065174;28;20430;-65
2024/01/22 00:52:23;;;;;;;108.78;103.18;;;;;;;;;;5071707;28;20436;-65
2024/01/22 00:54:53;;;;;;;86.80;82.18;;;;;;;;;;5059014;28;20433;-65
2024/01/22 00:57:20;;;;;;;89.10;84.10;;;;;;;;;;5065667;28;20510;-65
2024/01/22 00:59:48;;;;;;;109.25;103.60;;;;;;;;;;5066408;28;20967;-65
2024/01/22 01:02:18;;;;;;;96.82;91.55;;;;;;;;;;5069211;28;20468;-65
2024/01/22 01:04:47;;;;;;;69.75;65.93;;;;;;;;;;5062485;28;21179;-65
2024/01/22 01:07:17;;;;;;;98.65;93.43;;;;;;;;;;5068733;28;20911;-65
2024/01/22 01:09:44;;;;;;;106.60;101.07;;;;;;;;;;5065657;28;20526;-65
2024/01/22 01:12:12;;;;;;;115.43;109.40;;;;;;;;;;5066163;28;20428;-65
2024/01/22 01:14:39;;;;;;;122.55;116.10;;;;;;;;;;5064624;28;20434;-64
2024/01/22 01:17:06;;;;;;;118.03;111.90;;;;;;;;;;5058601;28;20466;-64
2024/01/22 01:19:33;;;;;;;117.95;111.82;;;;;;;;;;5066757;28;20454;-65
2024/01/22 01:22:00;;;;;;;123.65;117.25;;;;;;;;;;5059906;28;20428;-65
2024/01/22 01:24:28;;;;;;;123.15;116.78;;;;;;;;;;5064453;28;20677;-65
2024/01/22 01:26:55;;;;;;;126.15;119.68;;;;;;;;;;5066410;28;20435;-65
2024/01/22 01:29:24;;;;;;;129.80;123.00;;;;;;;;;;5066370;28;20432;-65
2024/01/22 01:31:55;;;;;;;126.22;119.82;;;;;;;;;;5067233;28;20428;-65
2024/01/22 01:34:22;;;;;;;120.65;114.47;;;;;;;;;;5063856;28;20859;-65
2024/01/22 01:36:49;;;;;;;113.63;107.80;;;;;;;;;;5079151;28;20955;-65
2024/01/22 01:39:16;;;;;;;90.43;85.53;;;;;;;;;;5064730;28;20450;-65
2024/01/22 01:41:43;;;;;;;93.53;88.45;;;;;;;;;;5055515;28;20925;-64
2024/01/22 01:44:11;;;;;;;104.28;98.88;;;;;;;;;;5067904;28;20515;-65
2024/01/22 01:46:38;;;;;;;85.00;80.45;;;;;;;;;;5067323;28;20794;-65
2024/01/22 01:49:06;;;;;;;79.80;75.50;;;;;;;;;;5058192;28;20426;-65
2024/01/22 01:51:41;;;;;;;80.35;76.07;;;;;;;;;;5069459;28;20427;-65
2024/01/22 01:54:11;;;;;;;85.57;80.70;;;;;;;;;;5053873;28;22052;-65
2024/01/22 01:56:41;;;;;;;92.30;87.35;;;;;;;;;;5083416;28;20513;-65
2024/01/22 01:59:12;;;;;;;102.35;97.03;;;;;;;;;;5080640;28;20443;-65
2024/01/22 02:01:42;;;;;;;55.35;52.30;;;;;;;;;;5085759;28;20431;-65
2024/01/22 02:04:09;;;;;;;93.25;88.28;;;;;;;;;;5085224;28;20922;-65
2024/01/22 02:06:36;;;;;;;67.28;63.53;;;;;;;;;;5080433;28;20510;-65
2024/01/22 02:09:03;;;;;;;99.00;93.78;;;;;;;;;;5071141;28;20467;-65
2024/01/22 02:11:31;;;;;;;99.10;93.77;;;;;;;;;;5085787;28;20456;-65
2024/01/22 02:13:58;;;;;;;98.47;93.20;;;;;;;;;;5081225;28;20484;-65
2024/01/22 02:16:31;;;;;;;97.93;92.72;;;;;;;;;;5070637;28;20519;-65
2024/01/22 02:18:58;;;;;;;96.47;91.40;;;;;;;;;;5067174;28;20431;-65
2024/01/22 02:21:28;;;;;;;112.40;106.38;;;;;;;;;;5068402;28;20443;-65
2024/01/22 02:23:55;;;;;;;123.10;116.68;;;;;;;;;;5075068;28;20461;-65
2024/01/22 02:26:23;;;;;;;103.10;97.53;;;;;;;;;;5067654;28;20436;-65
2024/01/22 02:28:50;;;;;;;70.13;66.15;;;;;;;;;;5071351;28;20431;-65
2024/01/22 02:31:19;;;;;;;90.25;85.03;;;;;;;;;;5072362;28;20426;-65
2024/01/22 02:33:46;;;;;;;88.90;84.07;;;;;;;;;;5072170;28;20904;-65
2024/01/22 02:36:14;;;;;;;95.35;90.13;;;;;;;;;;5063239;28;20433;-65
2024/01/22 02:38:41;;;;;;;94.07;88.85;;;;;;;;;;5063114;28;20427;-65
2024/01/22 02:41:11;;;;;;;84.00;79.45;;;;;;;;;;5069317;28;20435;-65
2024/01/22 02:43:38;;;;;;;78.40;73.80;;;;;;;;;;5065661;28;20441;-65
2024/01/22 02:46:06;;;;;;;93.80;88.25;;;;;;;;;;5069815;28;20506;-64
2024/01/22 02:48:33;;;;;;;124.13;116.95;;;;;;;;;;5078835;28;20477;-64
2024/01/22 02:51:00;;;;;;;131.48;124.53;;;;;;;;;;5066229;28;20429;-65
2024/01/22 02:53:27;;;;;;;137.65;130.30;;;;;;;;;;5069703;28;20454;-66
2024/01/22 02:55:58;;;;;;;136.60;129.40;;;;;;;;;;5066997;28;20442;-65
2024/01/22 02:58:25;;;;;;;107.40;101.60;;;;;;;;;;5071052;28;20590;-65
2024/01/22 03:00:52;;;;;;;127.20;120.57;;;;;;;;;;5064165;28;20965;-65
2024/01/22 03:03:19;;;;;;;98.68;93.22;;;;;;;;;;5062336;28;20510;-65
2024/01/22 03:05:49;;;;;;;132.30;125.30;;;;;;;;;;5065945;28;21211;-66
2024/01/22 03:08:16;;;;;;;140.45;133.20;;;;;;;;;;5068654;28;20425;-65
2024/01/22 03:10:45;;;;;;;107.13;101.53;;;;;;;;;;5064905;28;20428;-66
2024/01/22 03:13:12;;;;;;;101.68;96.13;;;;;;;;;;5074957;28;20516;-65
2024/01/22 03:15:40;;;;;;;102.82;97.22;;;;;;;;;;5072795;28;20427;-66
2024/01/22 03:18:08;;;;;;;108.60;102.80;;;;;;;;;;5067694;28;20432;-66
2024/01/22 03:20:37;;;;;;;111.90;105.95;;;;;;;;;;5069908;28;20423;-66
2024/01/22 03:23:05;;;;;;;108.00;102.27;;;;;;;;;;5059194;28;20441;-66
2024/01/22 03:25:33;;;;;;;140.80;133.32;;;;;;;;;;5066114;28;20807;-66
2024/01/22 03:28:00;;;;;;;82.88;77.13;;;;;;;;;;5071833;28;20984;-66
2024/01/22 03:30:27;;;;;;;78.60;74.05;;;;;;;;;;5072479;28;20483;-66
2024/01/22 03:32:54;;;;;;;70.35;66.32;;;;;;;;;;5069895;28;20515;-66
2024/01/22 03:35:22;;;;;;;83.10;77.70;;;;;;;;;;5069242;28;20424;-66
2024/01/22 03:37:49;;;;;;;56.70;53.38;;;;;;;;;;5065320;28;20511;-67
2024/01/22 03:40:16;;;;;;;62.65;59.05;;;;;;;;;;5068287;28;20463;-66
2024/01/22 03:42:43;;;;;;;65.53;61.80;;;;;;;;;;5069555;28;20828;-66
2024/01/22 03:45:11;;;;;;;109.35;103.68;;;;;;;;;;5067923;28;20435;-66
2024/01/22 03:47:38;;;;;;;95.53;88.22;;;;;;;;;;5067547;28;20497;-66
2024/01/22 03:50:06;;;;;;;110.63;104.63;;;;;;;;;;5073563;28;20431;-66
2024/01/22 03:52:34;;;;;;;57.80;54.65;;;;;;;;;;5065268;28;20926;-66
2024/01/22 03:55:02;;;;;;;58.25;54.58;;;;;;;;;;5064115;28;20439;-67
2024/01/22 03:57:29;;;;;;;51.80;48.80;;;;;;;;;;5070046;28;20435;-67
2024/01/22 03:59:56;;;;;;;66.68;62.40;;;;;;;;;;5074951;28;20431;-67
2024/01/22 04:02:25;;;;;;;96.90;91.20;;;;;;;;;;5061036;28;20435;-67
2024/01/22 04:04:53;;;;;;;113.25;107.18;;;;;;;;;;5066389;28;20454;-67
2024/01/22 04:07:21;;;;;;;119.60;113.03;;;;;;;;;;5060720;28;20946;-67
2024/01/22 04:09:48;;;;;;;114.43;108.00;;;;;;;;;;5063539;28;20500;-67
2024/01/22 04:12:16;;;;;;;75.90;71.55;;;;;;;;;;5060056;28;21898;-68
2024/01/22 04:14:43;;;;;;;59.00;55.60;;;;;;;;;;5063820;28;20431;-68
2024/01/22 04:17:10;;;;;;;63.60;59.53;;;;;;;;;;5067349;28;20445;-68
2024/01/22 04:19:38;;;;;;;108.32;102.18;;;;;;;;;;5070325;28;20431;-68
2024/01/22 04:22:05;;;;;;;116.40;110.20;;;;;;;;;;5070721;28;20431;-68
2024/01/22 04:24:33;;;;;;;111.50;105.22;;;;;;;;;;5062490;28;22411;-68
2024/01/22 04:27:04;;;;;;;105.68;99.90;;;;;;;;;;5065876;28;20479;-69
2024/01/22 04:29:34;;;;;;;105.78;99.97;;;;;;;;;;5068400;28;20427;-69
2024/01/22 04:32:02;;;;;;;56.45;53.10;;;;;;;;;;5077922;28;20466;-69
2024/01/22 04:34:30;;;;;;;55.67;52.40;;;;;;;;;;5073564;28;20484;-69
2024/01/22 04:36:57;;;;;;;66.75;62.83;;;;;;;;;;5067241;28;20431;-69
2024/01/22 04:39:25;;;;;;;78.38;73.97;;;;;;;;;;5070197;28;20430;-69
2024/01/22 04:41:56;;;;;;;57.88;54.47;;;;;;;;;;5064493;28;20423;-69
2024/01/22 04:44:23;;;;;;;64.30;60.50;;;;;;;;;;5065499;28;20935;-69
2024/01/22 04:46:50;;;;;;;111.60;105.10;;;;;;;;;;5060760;28;20504;-69
2024/01/22 04:49:17;;;;;;;103.95;98.45;;;;;;;;;;5063385;28;20423;-69
2024/01/22 04:51:45;;;;;;;65.95;62.22;;;;;;;;;;5068479;28;20437;-69
2024/01/22 04:54:12;;;;;;;72.38;68.35;;;;;;;;;;5066135;28;20501;-69
2024/01/22 04:56:44;;;;;;;85.10;80.47;;;;;;;;;;5068052;28;20973;-69
2024/01/22 04:59:12;;;;;;;86.60;81.45;;;;;;;;;;5065601;28;20431;-70
2024/01/22 05:01:40;;;;;;;60.58;57.03;;;;;;;;;;5066798;28;20979;-70
2024/01/22 05:04:07;;;;;;;54.10;51.00;;;;;;;;;;5066907;28;21144;-70
2024/01/22 05:06:35;;;;;;;60.47;56.97;;;;;;;;;;5069427;28;20969;-70
2024/01/22 05:09:06;;;;;;;83.55;79.00;;;;;;;;;;5067460;28;20902;-70
2024/01/22 05:11:33;;;;;;;101.25;95.55;;;;;;;;;;5062433;28;20443;-70
2024/01/22 05:14:00;;;;;;;105.63;99.93;;;;;;;;;;5067665;28;20476;-71
2024/01/22 05:16:27;;;;;;;105.03;99.38;;;;;;;;;;5066986;28;20485;-71
2024/01/22 05:18:54;;;;;;;121.90;115.30;;;;;;;;;;5066208;28;20459;-72
2024/01/22 05:21:22;;;;;;;133.40;126.40;;;;;;;;;;5062817;28;20786;-72
2024/01/22 05:23:49;;;;;;;121.87;115.40;;;;;;;;;;5065654;28;20476;-73
2024/01/22 05:26:20;;;;;;;103.47;98.00;;;;;;;;;;5068972;28;20481;-72
2024/01/22 05:28:47;;;;;;;117.82;111.47;;;;;;;;;;5066318;28;20581;-73
2024/01/22 05:31:14;;;;;;;101.72;96.22;;;;;;;;;;5064681;28;20427;-73
2024/01/22 05:33:42;;;;;;;99.22;94.10;;;;;;;;;;5075912;28;20467;-73
2024/01/22 05:36:10;;;;;;;116.00;109.95;;;;;;;;;;5069822;28;20438;-73
2024/01/22 05:38:43;;;;;;;113.35;107.43;;;;;;;;;;5060842;28;20471;-73
2024/01/22 05:41:11;;;;;;;81.07;76.77;;;;;;;;;;5063061;28;20434;-73
2024/01/22 05:43:38;;;;;;;107.72;102.15;;;;;;;;;;5067241;28;20501;-74
2024/01/22 05:46:07;;;;;;;76.13;71.93;;;;;;;;;;5068234;28;20435;-74
2024/01/22 05:48:35;;;;;;;101.28;95.93;;;;;;;;;;5062159;28;20933;-74
2024/01/22 05:51:02;;;;;;;113.10;107.23;;;;;;;;;;5067697;28;20931;-74
2024/01/22 05:53:29;;;;;;;109.47;103.65;;;;;;;;;;5066609;28;20430;-74
2024/01/22 05:55:56;;;;;;;79.78;75.30;;;;;;;;;;5050298;28;20427;-74
2024/01/22 05:58:24;;;;;;;84.18;79.68;;;;;;;;;;5072367;28;20448;-76
2024/01/22 06:00:51;;;;;;;88.35;83.63;;;;;;;;;;5065866;28;20432;-75
2024/01/22 06:03:18;;;;;;;94.23;89.23;;;;;;;;;;5063815;28;20430;-75
2024/01/22 06:05:46;;;;;;;91.90;86.65;;;;;;;;;;5070440;28;20519;-75
2024/01/22 06:08:13;;;;;;;94.22;89.25;;;;;;;;;;5055758;28;21176;-76
2024/01/22 06:10:43;;;;;;;93.93;89.03;;;;;;;;;;5055514;28;20952;-76
2024/01/22 06:13:11;;;;;;;102.95;97.50;;;;;;;;;;5067516;28;20435;-75
2024/01/22 06:15:38;;;;;;;90.57;85.40;;;;;;;;;;5057689;28;20479;-76
2024/01/22 06:18:06;;;;;;;107.20;101.63;;;;;;;;;;5065550;28;20572;-75
2024/01/22 06:20:34;;;;;;;99.53;94.28;;;;;;;;;;5070014;28;20433;-75
2024/01/22 06:23:05;;;;;;;102.68;97.30;;;;;;;;;;5071374;28;20430;-74
2024/01/22 06:25:32;;;;;;;107.35;101.70;;;;;;;;;;5065680;28;20439;-74
2024/01/22 06:27:59;;;;;;;107.20;101.63;;;;;;;;;;5072342;28;20421;-74
2024/01/22 06:30:26;;;;;;;105.37;99.83;;;;;;;;;;5080369;28;20493;-74
2024/01/22 06:32:55;;;;;;;122.82;116.35;;;;;;;;;;5086973;28;20456;-74
2024/01/22 06:35:22;;;;;;;128.35;121.75;;;;;;;;;;5069012;28;20439;-74
2024/01/22 06:37:49;;;;;;;119.45;113.10;;;;;;;;;;5071868;28;20431;-73
2024/01/22 06:40:26;;;;;;;133.93;126.85;;;;;;;;;;5078796;28;20505;-73
2024/01/22 06:42:56;;;;;;;140.38;133.30;;;;;;;;;;5065483;28;20446;-72
2024/01/22 06:45:23;;;;;;;143.45;136.15;;;;;;;;;;5068326;28;20500;-74
2024/01/22 06:47:52;;;;;;;129.23;122.55;;;;;;;;;;5071754;28;20458;-73
2024/01/22 06:50:19;;;;;;;130.18;123.43;;;;;;;;;;5065108;28;20792;-69
2024/01/22 06:52:46;;;;;;;128.33;121.73;;;;;;;;;;5073480;28;20480;-69
2024/01/22 06:55:13;;;;;;;126.88;120.22;;;;;;;;;;5084282;28;20429;-69
2024/01/22 06:57:40;;;;;;;126.43;119.93;;;;;;;;;;5063969;28;20431;-69
2024/01/22 07:00:09;;;;;;;124.68;118.13;;;;;;;;;;5079840;28;20527;-69
2024/01/22 07:02:39;;;;;;;124.20;117.75;;;;;;;;;;5062618;28;20450;-69
2024/01/22 07:05:07;;;;;;;116.65;110.47;;;;;;;;;;5064560;28;20427;-69
2024/01/22 07:07:41;;;;;;;106.60;100.90;;;;;;;;;;5067213;28;20439;-69
2024/01/22 07:10:09;;;;;;;117.43;111.33;;;;;;;;;;5069586;28;20909;-69
2024/01/22 07:12:41;;;;;;;121.97;115.53;;;;;;;;;;5062473;28;20507;-69
2024/01/22 07:15:12;;;;;;;110.70;104.15;;;;;;;;;;5066871;28;20436;-70
2024/01/22 07:17:46;;;;;;;101.55;95.90;;;;;;;;;;5072960;28;20481;-69
2024/01/22 07:20:14;;;;;;;100.88;95.50;;;;;;;;;;5060324;28;20491;-69
2024/01/22 07:22:43;;;;;;;76.13;71.88;;;;;;;;;;5063385;28;20829;-69
2024/01/22 07:25:15;;;;;;;119.90;113.63;;;;;;;;;;5076601;28;21026;-69
2024/01/22 07:27:44;;;;;;;110.50;103.97;;;;;;;;;;5061519;28;20428;-68
2024/01/22 07:30:14;;;;;;;112.82;106.43;;;;;;;;;;5068110;28;20423;-69
2024/01/22 07:32:42;;;;;;;92.70;86.80;;;;;;;;;;5065295;28;20509;-69
2024/01/22 07:35:13;;;;;;;103.95;98.28;;;;;;;;;;5071156;28;20910;-69
2024/01/22 07:37:45;;;;;;;112.50;106.38;;;;;;;;;;5055310;28;20434;-69
2024/01/22 07:40:13;;;;;;;72.45;68.25;;;;;;;;;;5064139;28;20455;-69
2024/01/22 07:42:41;;;;;;;67.88;64.18;;;;;;;;;;5061811;28;21012;-69
2024/01/22 07:45:09;;;;;;;75.35;71.20;;;;;;;;;;5067368;28;20431;-69
2024/01/22 07:47:38;;;;;;;71.30;67.35;;;;;;;;;;5060183;28;20599;-69
2024/01/22 07:50:10;;;;;;;91.68;86.80;;;;;;;;;;5063991;28;20802;-69
2024/01/22 07:52:40;;;;;;;114.77;108.70;;;;;;;;;;5067074;28;20510;-69
2024/01/22 07:55:12;;;;;;;111.90;106.00;;;;;;;;;;5063460;28;20964;-69
2024/01/22 07:57:40;;;;;;;121.20;114.90;;;;;;;;;;5071792;28;20450;-69
2024/01/22 08:00:11;;;;;;;114.00;107.95;;;;;;;;;;5062832;28;20506;-69
2024/01/22 08:02:43;;;;;;;122.90;116.47;;;;;;;;;;5070031;28;21499;-69
2024/01/22 08:05:13;;;;;;;118.10;111.97;;;;;;;;;;5070790;28;20491;-69
2024/01/22 08:07:44;;;;;;;103.07;97.70;;;;;;;;;;5067547;28;20518;-69
2024/01/22 08:10:12;;;;;;;101.38;95.55;;;;;;;;;;5066950;28;20428;-69
2024/01/22 08:12:40;;;;;;;98.33;93.03;;;;;;;;;;5070902;28;20514;-69
2024/01/22 08:15:09;;;;;;;109.82;104.00;;;;;;;;;;5052636;28;20435;-69
2024/01/22 08:17:37;;;;;;;129.07;122.40;;;;;;;;;;5064049;28;20433;-70
2024/01/22 08:20:07;;;;;;;125.07;118.57;;;;;;;;;;5062426;28;20431;-70
2024/01/22 08:22:35;;;;;;;115.32;109.15;;;;;;;;;;5062998;28;20445;-70
2024/01/22 08:25:03;;;;;;;111.32;105.45;;;;;;;;;;5064570;28;20437;-71
2024/01/22 08:27:30;;;;;;;138.13;131.02;;;;;;;;;;5070979;28;20431;-71
2024/01/22 08:29:58;;;;;;;126.05;119.47;;;;;;;;;;5061047;28;20497;-71
2024/01/22 08:32:25;;;;;;;129.85;123.07;;;;;;;;;;5068307;28;20511;-71
2024/01/22 08:34:53;;;;;;;114.35;108.32;;;;;;;;;;5065104;28;20434;-71
2024/01/22 08:37:21;;;;;;;120.28;113.93;;;;;;;;;;5069938;28;20435;-71
2024/01/22 08:39:48;;;;;;;132.18;125.30;;;;;;;;;;5064477;28;20420;-72
2024/01/22 08:42:24;;;;;;;133.80;126.82;;;;;;;;;;5063014;28;20435;-72
2024/01/22 08:44:52;;;;;;;130.52;123.82;;;;;;;;;;5071356;28;20425;-72
2024/01/22 08:47:19;;;;;;;117.72;111.53;;;;;;;;;;5075040;28;21117;-73
2024/01/22 08:49:46;;;;;;;125.18;118.63;;;;;;;;;;5063908;28;20431;-73
2024/01/22 08:52:16;;;;;;;126.78;120.22;;;;;;;;;;5063600;28;20989;-74
2024/01/22 08:54:43;;;;;;;130.98;124.15;;;;;;;;;;5064818;28;21220;-74
2024/01/22 08:57:13;;;;;;;122.13;115.47;;;;;;;;;;5064047;28;20434;-74
2024/01/22 08:59:40;;;;;;;130.77;123.97;;;;;;;;;;5067631;28;20794;-74
2024/01/22 09:02:10;;;;;;;143.68;136.43;;;;;;;;;;5061153;28;20451;-74
2024/01/22 09:04:37;;;;;;;127.53;121.00;;;;;;;;;;5062602;28;20585;-74
2024/01/22 09:07:04;;;;;;;139.18;132.10;;;;;;;;;;5064391;28;20521;-76
2024/01/22 09:09:32;;;;;;;128.85;122.25;;;;;;;;;;5061810;28;20426;-76
2024/01/22 09:11:59;;;;;;;97.32;92.13;;;;;;;;;;5066626;28;20423;-76
2024/01/22 09:14:27;;;;;;;114.32;108.28;;;;;;;;;;5067425;28;20479;-78
2024/01/22 09:16:54;;;;;;;117.60;111.40;;;;;;;;;;5065605;28;20451;-76
2024/01/22 09:19:24;;;;;;;118.80;112.60;;;;;;;;;;5068778;28;20508;-76
2024/01/22 09:21:52;;;;;;;112.10;106.25;;;;;;;;;;5052216;28;20486;-77
2024/01/22 09:24:19;;;;;;;120.47;112.78;;;;;;;;;;5063996;28;20436;-77
2024/01/22 09:26:46;;;;;;;118.13;112.00;;;;;;;;;;5061143;28;21111;-77
2024/01/22 09:29:21;;;;;;;117.63;111.43;;;;;;;;;;5054477;28;20423;-77
2024/01/22 09:31:48;;;;;;;109.63;103.53;;;;;;;;;;5076310;28;20479;-79
2024/01/22 09:34:15;;;;;;;113.18;107.18;;;;;;;;;;5070648;28;20798;-78
2024/01/22 09:36:47;;;;;;;109.63;103.93;;;;;;;;;;5064722;28;20457;-78
2024/01/22 09:39:15;;;;;;;91.53;86.73;;;;;;;;;;5068652;28;20459;-77
2024/01/22 09:41:49;;;;;;;102.40;96.93;;;;;;;;;;5066666;28;20513;-76
2024/01/22 09:44:17;;;;;;;91.40;86.32;;;;;;;;;;5058398;28;20970;-78
2024/01/22 09:46:46;;;;;;;95.15;90.15;;;;;;;;;;5072644;28;20454;-79
2024/01/22 09:49:19;;;;;;;100.43;95.13;;;;;;;;;;5068887;28;20454;-77
2024/01/22 09:51:46;;;;;;;109.70;103.75;;;;;;;;;;5064307;28;20430;-79
2024/01/22 09:54:18;;;;;;;106.22;100.63;;;;;;;;;;5072842;28;20427;-78
2024/01/22 09:56:53;;;;;;;93.28;88.28;;;;;;;;;;5066647;28;20480;-79
2024/01/22 09:59:21;;;;;;;115.18;108.97;;;;;;;;;;5078087;28;20921;-79
2024/01/22 10:01:52;;;;;;;110.13;104.40;;;;;;;;;;5070832;28;20436;-78
2024/01/22 10:04:26;;;;;;;114.43;108.22;;;;;;;;;;5071098;28;20435;-78
2024/01/22 10:06:54;;;;;;;108.93;102.63;;;;;;;;;;5071609;28;20434;-77
2024/01/22 10:09:22;;;;;;;121.57;115.28;;;;;;;;;;5073633;28;20476;-78
2024/01/22 10:11:52;;;;;;;112.45;106.60;;;;;;;;;;5075894;28;20428;-77
2024/01/22 10:14:30;;;;;;;131.55;124.78;;;;;;;;;;5073834;28;20423;-77
2024/01/22 10:17:15;;;;;;;141.02;133.75;;;;;;;;;;5073532;28;20439;-77
2024/01/22 10:19:43;;;;;;;138.82;131.63;;;;;;;;;;5082216;28;20901;-76
2024/01/22 10:22:13;;;;;;;150.63;142.98;;;;;;;;;;5072974;28;20427;-76
2024/01/22 10:24:41;;;;;;;151.07;143.10;;;;;;;;;;5073092;28;20443;-77
2024/01/22 10:27:14;;;;;;;135.50;128.10;;;;;;;;;;5073838;28;20532;-77
2024/01/22 10:29:45;;;;;;;140.77;133.60;;;;;;;;;;5074401;28;20463;-76
2024/01/22 10:32:12;;;;;;;121.50;114.82;;;;;;;;;;5069990;28;20427;-76
2024/01/22 10:34:44;;;;;;;150.97;143.20;;;;;;;;;;5070487;28;20480;-75
2024/01/22 10:37:12;;;;;;;151.00;143.30;;;;;;;;;;5067310;28;20457;-75
2024/01/22 10:39:42;;;;;;;151.87;144.03;;;;;;;;;;5073075;28;21043;-75
2024/01/22 10:42:22;;;;;;;152.77;144.98;;;;;;;;;;5076048;28;20427;-75
2024/01/22 10:44:50;;;;;;;123.85;117.30;;;;;;;;;;5072413;28;20925;-76
2024/01/22 10:47:22;;;;;;;88.90;83.82;;;;;;;;;;5068051;28;20469;-75
2024/01/22 10:49:52;;;;;;;101.20;95.88;;;;;;;;;;5067423;28;20481;-74
2024/01/22 10:52:20;;;;;;;97.00;91.63;;;;;;;;;;5064972;28;20514;-75
2024/01/22 10:54:47;;;;;;;107.90;102.07;;;;;;;;;;5070255;28;20518;-74
2024/01/22 10:57:37;;;;;;;112.10;106.30;;;;;;;;;;5071112;28;20436;-74
2024/01/22 11:00:06;;;;;;;109.72;103.95;;;;;;;;;;5071087;28;20510;-75
2024/01/22 11:02:35;;;;;;;103.68;98.15;;;;;;;;;;5067652;28;20470;-74
2024/01/22 11:05:30;;;;;;;102.70;97.22;;;;;;;;;;5074077;28;20462;-74
2024/01/22 11:07:58;;;;;;;109.68;104.00;;;;;;;;;;5072915;28;20464;-74
2024/01/22 11:10:25;;;;;;;95.47;90.35;;;;;;;;;;5070961;28;20510;-74
2024/01/22 11:12:55;;;;;;;101.72;95.25;;;;;;;;;;5061413;28;20464;-74
2024/01/22 11:15:22;;;;;;;91.70;86.70;;;;;;;;;;5068815;28;20902;-74
2024/01/22 11:17:49;;;;;;;93.63;88.57;;;;;;;;;;5068310;28;20435;-74
2024/01/22 11:20:17;;;;;;;84.63;79.88;;;;;;;;;;5080874;28;20437;-70
2024/01/22 11:23:13;;;;;;;103.97;98.40;;;;;;;;;;5069521;28;20530;-70
2024/01/22 11:25:40;;;;;;;99.20;93.80;;;;;;;;;;5084855;28;20441;-71
2024/01/22 11:28:15;;;;;;;102.00;96.60;;;;;;;;;;5065320;28;20447;-70
2024/01/22 11:30:47;;;;;;;115.85;109.82;;;;;;;;;;5076173;28;20428;-70
2024/01/22 11:33:26;;;;;;;110.72;104.90;;;;;;;;;;5069325;28;20439;-68
2024/01/22 11:35:54;;;;;;;126.68;119.95;;;;;;;;;;5060323;28;20432;-69
2024/01/22 11:38:40;;;;;;;120.43;114.20;;;;;;;;;;5067316;28;20432;-69
2024/01/22 11:41:10;;;;;;;111.03;105.18;;;;;;;;;;5069245;28;20431;-69
2024/01/22 11:43:40;;;;;;;120.68;114.47;;;;;;;;;;5066844;28;20437;-69
2024/01/22 11:46:17;;;;;;;107.05;101.43;;;;;;;;;;5072849;28;20930;-68
2024/01/22 11:48:44;;;;;;;114.53;108.30;;;;;;;;;;5063561;28;20760;-68
2024/01/22 11:51:12;;;;;;;122.55;116.15;;;;;;;;;;5050991;28;20431;-69
2024/01/22 11:53:53;;;;;;;113.88;107.93;;;;;;;;;;5066713;28;20434;-69
2024/01/22 11:56:23;;;;;;;116.25;110.20;;;;;;;;;;5066115;28;20925;-69
2024/01/22 11:59:03;;;;;;;108.13;102.43;;;;;;;;;;5059073;28;20454;-69
2024/01/22 12:01:30;;;;;;;102.65;97.00;;;;;;;;;;5049208;28;20440;-70
2024/01/22 12:04:08;;;;;;;123.93;117.40;;;;;;;;;;5057405;28;21144;-69
2024/01/22 12:06:48;;;;;;;119.90;113.43;;;;;;;;;;5075312;28;20427;-68
2024/01/22 12:09:16;;;;;;;123.38;115.70;;;;;;;;;;5065628;28;20427;-68
2024/01/22 12:11:50;;;;;;;145.30;137.70;;;;;;;;;;5073118;28;20431;-69
2024/01/22 12:14:18;;;;;;;121.90;115.32;;;;;;;;;;5056154;28;20479;-69
2024/01/22 12:16:45;;;;;;;99.57;93.93;;;;;;;;;;5057966;28;20481;-69
2024/01/22 12:19:13;;;;;;;91.72;86.88;;;;;;;;;;5063556;28;20463;-69
2024/01/22 12:21:40;;;;;;;100.55;95.15;;;;;;;;;;5063409;28;20428;-68
2024/01/22 12:24:11;;;;;;;94.32;89.28;;;;;;;;;;5068600;28;20523;-69
2024/01/22 12:26:40;;;;;;;99.63;94.38;;;;;;;;;;5068807;28;20428;-69
2024/01/22 12:29:18;;;;;;;94.28;89.28;;;;;;;;;;5064507;28;20489;-69
2024/01/22 12:31:45;;;;;;;83.43;78.80;;;;;;;;;;5067601;28;20508;-71
2024/01/22 12:34:17;;;;;;;95.28;89.85;;;;;;;;;;5048664;28;20437;-69
2024/01/22 12:36:45;;;;;;;106.10;100.43;;;;;;;;;;5076613;28;20441;-69
2024/01/22 12:39:19;;;;;;;91.20;86.28;;;;;;;;;;5064756;28;20431;-69
2024/01/22 12:41:46;;;;;;;101.13;95.72;;;;;;;;;;5064604;28;20436;-69
2024/01/22 12:44:14;;;;;;;98.22;92.95;;;;;;;;;;5076323;28;20463;-69
2024/01/22 12:46:41;;;;;;;90.20;85.30;;;;;;;;;;5068342;28;20480;-69
2024/01/22 12:49:09;;;;;;;101.28;95.97;;;;;;;;;;5066752;28;20430;-69
2024/01/22 12:51:36;;;;;;;84.28;79.70;;;;;;;;;;5061213;28;20423;-69
2024/01/22 12:54:05;;;;;;;81.50;76.95;;;;;;;;;;5060916;28;20432;-69
2024/01/22 12:56:33;;;;;;;98.07;92.85;;;;;;;;;;5062847;28;20963;-68
2024/01/22 12:59:00;;;;;;;102.57;96.97;;;;;;;;;;5065352;28;20472;-68
2024/01/22 13:01:28;;;;;;;98.25;93.07;;;;;;;;;;5068405;28;20427;-68
2024/01/22 13:03:57;;;;;;;103.20;97.60;;;;;;;;;;5063833;28;20458;-69
2024/01/22 13:06:24;;;;;;;89.55;84.63;;;;;;;;;;5064673;28;20949;-68
2024/01/22 13:08:53;;;;;;;102.22;96.68;;;;;;;;;;5065973;28;20906;-68
2024/01/22 13:11:23;;;;;;;103.30;97.75;;;;;;;;;;5068567;28;20492;-69
2024/01/22 13:13:50;;;;;;;99.95;94.53;;;;;;;;;;5068029;28;20431;-68
2024/01/22 13:16:17;;;;;;;102.47;96.80;;;;;;;;;;5064113;28;20458;-68
2024/01/22 13:18:46;;;;;;;97.78;92.32;;;;;;;;;;5066780;28;20431;-68
2024/01/22 13:21:16;;;;;;;97.60;92.20;;;;;;;;;;5071845;28;20500;-68
2024/01/22 13:23:45;;;;;;;98.57;93.00;;;;;;;;;;5067938;28;20496;-69
2024/01/22 13:26:18;;;;;;;93.05;87.80;;;;;;;;;;5067401;28;20494;-68
2024/01/22 13:28:46;;;;;;;93.03;87.72;;;;;;;;;;5065351;28;20770;-69
2024/01/22 13:31:13;;;;;;;96.07;90.70;;;;;;;;;;5067094;28;20427;-69
2024/01/22 13:33:42;;;;;;;102.70;96.90;;;;;;;;;;5063345;28;20426;-69
2024/01/22 13:36:16;;;;;;;117.25;111.03;;;;;;;;;;5070614;28;20439;-68
2024/01/22 13:38:44;;;;;;;117.30;110.90;;;;;;;;;;5065966;28;20438;-68
2024/01/22 13:41:13;;;;;;;104.10;98.33;;;;;;;;;;5067130;28;20876;-68
2024/01/22 13:43:42;;;;;;;113.70;107.60;;;;;;;;;;5066951;28;20435;-68
2024/01/22 13:46:10;;;;;;;121.60;115.18;;;;;;;;;;5074858;28;20435;-69
2024/01/22 13:48:37;;;;;;;120.25;113.95;;;;;;;;;;5066950;28;21788;-70
2024/01/22 13:51:05;;;;;;;115.53;109.45;;;;;;;;;;5059690;28;20427;-69
2024/01/22 13:53:32;;;;;;;112.40;105.78;;;;;;;;;;5062577;28;20488;-69
2024/01/22 13:55:59;;;;;;;111.57;105.72;;;;;;;;;;5065191;28;21092;-69
2024/01/22 13:58:28;;;;;;;115.85;109.82;;;;;;;;;;5076919;28;20488;-68
2024/01/22 14:00:58;;;;;;;113.13;107.25;;;;;;;;;;5067256;28;21188;-69
2024/01/22 14:03:25;;;;;;;92.97;87.88;;;;;;;;;;5067467;28;20923;-69
2024/01/22 14:05:53;;;;;;;99.93;94.53;;;;;;;;;;5065762;28;20432;-69
2024/01/22 14:08:23;;;;;;;92.55;87.47;;;;;;;;;;5059993;28;20425;-69
2024/01/22 14:10:51;;;;;;;106.35;100.80;;;;;;;;;;5055182;28;20427;-69
2024/01/22 14:13:21;;;;;;;96.97;91.80;;;;;;;;;;5061010;28;20510;-69